createdAt,value
2023-02-02T00:04:46.866Z,11.50
2023-02-02T00:14:53.312Z,15.20
2023-02-02T00:24:59.637Z,9.90
2023-02-02T00:35:06.030Z,8.10
2023-02-02T00:45:18.288Z,10.30
2023-02-02T00:55:25.272Z,11.30
2023-02-02T01:05:32.967Z,13.30
2023-02-02T01:15:39.374Z,14.30
2023-02-02T01:25:46.949Z,17.40
2023-02-02T01:35:55.602Z,18.00
2023-02-02T01:46:02.085Z,20.30
2023-02-02T01:56:09.582Z,19.30
2023-02-02T02:06:20.360Z,19.80
2023-02-02T02:16:58.906Z,17.70
2023-02-02T02:27:22.870Z,16.70
2023-02-02T02:37:40.716Z,10.90
2023-02-02T02:47:46.217Z,15.85
2023-02-02T02:58:15.117Z,16.20
2023-02-02T03:08:21.352Z,12.30
2023-02-02T03:18:32.018Z,13.70
2023-02-02T03:28:38.546Z,13.50
2023-02-02T03:38:44.850Z,13.40
2023-02-02T03:48:51.283Z,12.50
2023-02-02T03:58:57.635Z,18.90
2023-02-02T04:09:04.272Z,16.10
2023-02-02T04:19:10.877Z,21.00
2023-02-02T04:29:17.274Z,16.90
2023-02-02T04:39:23.614Z,21.90
2023-02-02T04:49:29.944Z,17.40
2023-02-02T04:59:36.197Z,20.50
2023-02-02T05:09:42.487Z,17.70
2023-02-02T05:19:48.767Z,18.90
2023-02-02T05:29:55.107Z,21.30
2023-02-02T05:40:01.404Z,20.40
2023-02-02T05:50:08.137Z,21.50
2023-02-02T06:00:15.041Z,29.50
2023-02-02T06:10:21.596Z,26.80
2023-02-02T06:20:28.137Z,30.10
2023-02-02T06:30:34.514Z,26.30
2023-02-02T06:40:41.378Z,22.20
2023-02-02T06:50:47.643Z,20.50
2023-02-02T07:00:54.039Z,20.40
2023-02-02T07:11:12.859Z,22.80
2023-02-02T07:21:25.913Z,24.60
2023-02-02T07:31:35.583Z,24.30
2023-02-02T07:41:42.556Z,29.50
2023-02-02T07:51:50.424Z,25.60
2023-02-02T08:01:57.124Z,27.20
2023-02-02T08:12:03.572Z,25.90
2023-02-02T08:22:10.431Z,27.10
2023-02-02T08:32:16.805Z,27.80
2023-02-02T08:42:23.111Z,25.90
2023-02-02T08:52:29.478Z,27.30
2023-02-02T09:02:35.909Z,28.80
2023-02-02T09:12:42.266Z,13.10
2023-02-02T09:22:48.902Z,11.10
2023-02-02T09:32:55.261Z,12.00
2023-02-02T09:43:29.430Z,14.20
2023-02-02T09:53:54.660Z,19.40
2023-02-02T10:04:13.719Z,19.60
2023-02-02T10:14:26.248Z,23.90
2023-02-02T10:24:33.192Z,16.30
2023-02-02T10:34:43.410Z,18.40
2023-02-02T10:45:11.617Z,16.30
2023-02-02T10:55:33.820Z,13.60
2023-02-02T11:05:59.089Z,12.70
2023-02-02T11:16:17.290Z,12.80
2023-02-02T11:26:25.710Z,16.20
2023-02-02T11:36:32.087Z,14.60
2023-02-02T11:46:39.650Z,15.00
2023-02-02T11:56:51.510Z,14.90
2023-02-02T12:06:58.253Z,16.50
2023-02-02T12:17:46.421Z,11.90
2023-02-02T12:27:55.506Z,11.10
2023-02-02T12:38:23.260Z,14.50
2023-02-02T12:48:47.276Z,15.50
2023-02-02T12:59:16.293Z,14.80
2023-02-02T13:09:22.558Z,15.10
2023-02-02T13:19:38.807Z,18.80
2023-02-02T13:29:48.339Z,15.85
2023-02-02T13:39:59.024Z,20.00
2023-02-02T13:50:13.325Z,15.20
2023-02-02T14:00:20.060Z,15.40
2023-02-02T14:10:29.226Z,16.60
2023-02-02T14:20:55.920Z,20.90
2023-02-02T14:31:28.343Z,23.70
2023-02-02T14:42:16.899Z,21.40
2023-02-02T14:52:24.406Z,21.00
2023-02-02T15:02:30.683Z,20.50
2023-02-02T15:12:46.320Z,20.80
2023-02-02T15:23:02.055Z,27.80
2023-02-02T15:33:19.365Z,36.70
2023-02-02T15:43:28.274Z,24.80
2023-02-02T15:53:47.531Z,26.20
2023-02-02T16:03:56.094Z,23.60
2023-02-02T16:14:08.304Z,20.70
2023-02-02T16:24:22.719Z,26.70
2023-02-02T16:34:41.542Z,24.20
2023-02-02T16:44:50.060Z,25.40
2023-02-02T16:54:57.758Z,24.80
2023-02-02T17:05:12.158Z,25.20
2023-02-02T17:15:18.574Z,22.70
2023-02-02T17:25:34.702Z,20.70
2023-02-02T17:35:53.840Z,26.00
2023-02-02T17:46:02.473Z,34.70
2023-02-02T17:56:09.029Z,32.70
2023-02-02T18:06:15.572Z,25.80
2023-02-02T18:16:23.581Z,22.40
2023-02-02T18:26:30.310Z,27.80
2023-02-02T18:36:37.395Z,21.00
2023-02-02T18:46:44.004Z,19.40
2023-02-02T18:56:50.565Z,20.00
2023-02-02T19:07:15.636Z,14.80
2023-02-02T19:17:23.549Z,13.80
2023-02-02T19:27:31.480Z,16.80
2023-02-02T19:37:40.335Z,23.20
2023-02-02T19:47:46.882Z,27.10
2023-02-02T19:58:02.704Z,21.70
2023-02-02T20:08:21.115Z,17.80
2023-02-02T20:19:08.367Z,18.70
2023-02-02T20:29:20.816Z,17.00
2023-02-02T20:39:37.048Z,19.00
2023-02-02T20:49:44.031Z,18.70
2023-02-02T20:59:51.177Z,20.80
2023-02-02T21:09:57.686Z,23.30
2023-02-02T21:20:04.020Z,25.40
2023-02-02T21:30:12.137Z,21.10
2023-02-02T21:40:25.873Z,22.00
2023-02-02T21:50:42.437Z,29.40
2023-02-02T22:00:49.804Z,21.20
2023-02-02T22:10:56.179Z,21.20
2023-02-02T22:21:02.454Z,18.90
2023-02-02T22:31:07.844Z,17.00
2023-02-02T22:41:14.281Z,16.00
2023-02-02T22:51:20.719Z,18.40
2023-02-02T23:01:27.042Z,20.70
2023-02-02T23:11:33.395Z,21.30
2023-02-02T23:21:39.728Z,19.40
2023-02-02T23:31:46.033Z,20.40
2023-02-02T23:41:52.720Z,20.40
2023-02-02T23:51:59.023Z,15.30
